createdAt,value
2019-03-06T00:01:21.058Z,14.70
2019-03-06T00:03:48.791Z,14.40
2019-03-06T00:06:16.955Z,14.70
2019-03-06T00:08:45.790Z,15.50
2019-03-06T00:11:13.846Z,15.10
2019-03-06T00:13:42.906Z,15.70
2019-03-06T00:16:11.626Z,15.60
2019-03-06T00:18:39.305Z,16.00
2019-03-06T00:21:07.771Z,16.20
2019-03-06T00:23:36.530Z,17.40
2019-03-06T00:26:05.485Z,17.60
2019-03-06T00:28:33.817Z,17.50
2019-03-06T00:31:01.882Z,17.80
2019-03-06T00:33:29.823Z,18.50
2019-03-06T00:35:58.415Z,17.90
2019-03-06T00:38:26.731Z,18.30
2019-03-06T00:41:17.230Z,19.40
2019-03-06T00:43:44.406Z,18.30
2019-03-06T00:46:11.834Z,18.80
2019-03-06T00:48:38.847Z,19.00
2019-03-06T00:51:06.142Z,19.30
2019-03-06T00:53:33.050Z,20.00
2019-03-06T00:56:01.358Z,19.30
2019-03-06T00:58:29.611Z,19.60
2019-03-06T01:00:57.854Z,19.30
2019-03-06T01:03:24.935Z,19.50
2019-03-06T01:05:53.277Z,19.50
2019-03-06T01:08:21.911Z,19.80
2019-03-06T01:10:50.405Z,19.80
2019-03-06T01:13:17.938Z,19.80
2019-03-06T01:15:46.208Z,20.40
2019-03-06T01:18:14.310Z,20.10
2019-03-06T01:20:42.943Z,20.40
2019-03-06T01:23:11.071Z,22.10
2019-03-06T01:25:39.110Z,21.90
2019-03-06T01:28:07.234Z,23.40
2019-03-06T01:30:35.308Z,24.40
2019-03-06T01:33:12.941Z,25.30
2019-03-06T01:35:49.297Z,25.90
2019-03-06T01:38:36.962Z,27.80
2019-03-06T01:41:11.034Z,30.00
2019-03-06T01:44:01.758Z,33.10
2019-03-06T01:46:30.421Z,34.10
2019-03-06T01:48:58.462Z,34.30
2019-03-06T01:51:26.506Z,34.60
2019-03-06T01:53:55.188Z,34.20
2019-03-06T01:56:23.478Z,36.10
2019-03-06T01:58:51.594Z,38.70
2019-03-06T02:01:19.774Z,38.00
2019-03-06T02:03:47.863Z,39.80
2019-03-06T02:06:16.652Z,40.60
2019-03-06T02:08:44.934Z,41.80
2019-03-06T02:11:13.063Z,42.00
2019-03-06T02:13:41.179Z,43.70
2019-03-06T02:16:09.726Z,46.40
2019-03-06T02:18:37.761Z,45.70
2019-03-06T02:21:04.802Z,48.70
2019-03-06T02:23:33.277Z,50.00
2019-03-06T02:26:01.250Z,51.60
2019-03-06T02:28:29.575Z,54.20
2019-03-06T02:30:57.534Z,54.90
2019-03-06T02:33:25.908Z,54.50
2019-03-06T02:35:56.853Z,53.90
2019-03-06T02:38:23.899Z,53.90
2019-03-06T02:40:50.838Z,53.70
2019-03-06T02:43:18.918Z,54.00
2019-03-06T02:45:47.229Z,56.80
2019-03-06T02:48:15.617Z,56.70
2019-03-06T02:50:43.763Z,57.00
2019-03-06T02:53:11.711Z,57.90
2019-03-06T02:55:39.744Z,57.20
2019-03-06T02:58:27.511Z,57.70
2019-03-06T03:01:21.425Z,59.10
2019-03-06T03:04:03.954Z,59.30
2019-03-06T03:06:35.252Z,60.20
2019-03-06T03:09:03.951Z,60.50
2019-03-06T03:11:30.854Z,59.30
2019-03-06T03:13:58.088Z,60.40
2019-03-06T03:16:25.092Z,59.40
2019-03-06T03:18:52.194Z,59.10
2019-03-06T03:21:19.233Z,59.30
2019-03-06T03:23:46.498Z,60.10
2019-03-06T03:26:14.423Z,58.70
2019-03-06T03:28:42.493Z,59.50
2019-03-06T03:31:11.328Z,59.50
2019-03-06T03:33:38.461Z,59.50
2019-03-06T03:36:06.656Z,59.70
2019-03-06T03:38:34.669Z,60.10
2019-03-06T03:41:03.161Z,60.00
2019-03-06T03:43:30.073Z,59.10
2019-03-06T03:45:58.133Z,59.30
2019-03-06T03:48:26.179Z,58.50
2019-03-06T03:50:54.467Z,57.40
2019-03-06T03:53:22.715Z,58.90
2019-03-06T03:55:50.688Z,57.80
2019-03-06T03:58:19.032Z,57.40
2019-03-06T04:00:47.050Z,57.80
2019-03-06T04:03:16.413Z,58.80
2019-03-06T04:05:43.574Z,59.30
2019-03-06T04:08:11.583Z,59.40
2019-03-06T04:10:43.944Z,59.70
2019-03-06T04:13:12.248Z,59.60
2019-03-06T04:15:40.946Z,58.70
2019-03-06T04:18:09.086Z,59.10
2019-03-06T04:20:36.324Z,59.50
2019-03-06T04:23:04.634Z,60.10
2019-03-06T04:25:33.468Z,59.70
2019-03-06T04:28:01.984Z,59.80
2019-03-06T04:30:29.018Z,59.60
2019-03-06T04:32:57.042Z,60.60
2019-03-06T04:35:25.381Z,59.60
2019-03-06T04:37:54.650Z,60.70
2019-03-06T04:40:22.079Z,61.40
2019-03-06T04:42:50.533Z,60.50
2019-03-06T04:45:19.525Z,61.40
2019-03-06T04:47:48.499Z,61.90
2019-03-06T04:50:17.750Z,61.80
2019-03-06T04:52:46.378Z,60.90
2019-03-06T04:55:15.215Z,59.70
2019-03-06T04:57:43.842Z,60.40
2019-03-06T05:00:12.344Z,61.40
2019-03-06T05:02:41.421Z,60.40
2019-03-06T05:05:09.050Z,60.50
2019-03-06T05:07:37.690Z,60.30
2019-03-06T05:10:06.472Z,60.20
2019-03-06T05:12:35.828Z,58.90
2019-03-06T05:15:03.776Z,58.10
2019-03-06T05:17:54.507Z,57.40
2019-03-06T05:20:23.002Z,58.10
2019-03-06T05:22:51.438Z,57.60
2019-03-06T05:25:20.135Z,57.70
2019-03-06T05:27:48.442Z,56.60
2019-03-06T05:30:18.710Z,57.00
2019-03-06T05:32:46.704Z,56.30
2019-03-06T05:35:42.223Z,58.00
2019-03-06T05:38:16.834Z,58.70
2019-03-06T05:40:45.277Z,58.90
2019-03-06T05:43:13.407Z,60.00
2019-03-06T05:45:41.615Z,59.20
2019-03-06T05:48:09.575Z,57.80
2019-03-06T05:50:37.593Z,58.10
2019-03-06T05:53:05.684Z,57.20
2019-03-06T05:55:33.629Z,56.30
2019-03-06T05:58:01.663Z,54.30
2019-03-06T06:00:31.674Z,56.10
2019-03-06T06:02:59.995Z,56.60
2019-03-06T06:05:28.109Z,57.30
2019-03-06T06:07:56.165Z,56.80
2019-03-06T06:10:24.096Z,57.60
2019-03-06T06:12:52.419Z,56.20
2019-03-06T06:15:21.338Z,55.50
2019-03-06T06:17:49.505Z,55.40
2019-03-06T06:20:17.782Z,55.00
2019-03-06T06:23:17.433Z,54.40
2019-03-06T06:25:44.497Z,54.10
2019-03-06T06:28:11.864Z,55.70
2019-03-06T06:30:40.007Z,55.70
2019-03-06T06:33:08.330Z,55.60
2019-03-06T06:35:36.795Z,55.50
2019-03-06T06:38:04.695Z,55.60
2019-03-06T06:40:33.089Z,56.80
2019-03-06T06:43:01.970Z,55.80
2019-03-06T06:45:30.101Z,56.10
2019-03-06T06:48:09.599Z,55.30
2019-03-06T06:50:39.914Z,55.90
2019-03-06T06:53:29.110Z,55.70
2019-03-06T06:56:13.646Z,54.20
2019-03-06T06:58:56.398Z,54.00
2019-03-06T07:02:05.061Z,52.50
2019-03-06T07:04:50.669Z,52.30
2019-03-06T07:07:46.906Z,51.20
2019-03-06T07:10:33.520Z,49.90
2019-03-06T07:13:21.458Z,49.50
2019-03-06T07:16:20.133Z,47.80
2019-03-06T07:19:20.514Z,45.60
2019-03-06T07:22:20.654Z,44.40
2019-03-06T07:25:02.990Z,42.80
2019-03-06T07:27:36.834Z,39.00
2019-03-06T07:30:36.931Z,37.80
2019-03-06T07:33:37.390Z,37.10
2019-03-06T07:36:30.203Z,35.70
2019-03-06T07:39:23.574Z,32.60
2019-03-06T07:42:22.560Z,29.90
2019-03-06T07:45:44.358Z,28.30
2019-03-06T07:48:46.370Z,29.60
2019-03-06T07:51:22.571Z,27.30
2019-03-06T07:54:09.486Z,26.00
2019-03-06T07:56:41.074Z,25.70
2019-03-06T07:59:08.394Z,23.30
2019-03-06T08:01:39.144Z,23.20
2019-03-06T08:04:18.139Z,23.10
2019-03-06T08:06:49.305Z,20.60
2019-03-06T08:09:18.495Z,20.70
2019-03-06T08:12:10.139Z,18.40
2019-03-06T08:14:52.826Z,19.00
2019-03-06T08:17:42.258Z,16.20
2019-03-06T08:20:27.794Z,11.80
2019-03-06T08:23:11.702Z,11.20
2019-03-06T08:25:46.182Z,8.80
2019-03-06T08:28:14.237Z,6.60
2019-03-06T08:30:45.723Z,6.60
2019-03-06T08:33:18.286Z,5.30
2019-03-06T08:35:43.054Z,2.80
2019-03-06T08:38:11.405Z,1.30
2019-03-06T08:40:39.789Z,1.30
2019-03-06T08:43:08.699Z,1.00
2019-03-06T08:45:49.326Z,1.00
2019-03-06T08:48:29.910Z,1.00
2019-03-06T08:51:16.521Z,1.00
2019-03-06T08:53:55.571Z,1.00
2019-03-06T08:56:31.989Z,1.00
2019-03-06T08:59:18.699Z,1.00
2019-03-06T09:02:15.100Z,1.00
2019-03-06T09:05:02.802Z,1.00
2019-03-06T09:07:49.067Z,1.00
2019-03-06T09:10:34.021Z,1.00
2019-03-06T09:13:20.641Z,1.00
2019-03-06T09:16:13.186Z,1.00
2019-03-06T09:18:59.734Z,1.00
2019-03-06T09:21:57.475Z,1.00
2019-03-06T09:24:35.898Z,1.00
2019-03-06T09:27:24.267Z,1.00
2019-03-06T09:30:19.730Z,1.00
2019-03-06T09:32:53.645Z,1.00
2019-03-06T09:35:39.477Z,1.00
2019-03-06T09:38:40.459Z,1.00
2019-03-06T09:41:18.882Z,1.00
2019-03-06T09:44:02.473Z,1.00
2019-03-06T09:47:08.764Z,1.00
2019-03-06T09:49:55.161Z,1.00
2019-03-06T09:52:42.793Z,1.00
2019-03-06T09:55:36.242Z,1.00
2019-03-06T09:58:20.998Z,1.00
2019-03-06T10:01:08.827Z,1.00
2019-03-06T10:03:47.993Z,1.00
2019-03-06T10:06:46.710Z,1.00
2019-03-06T10:09:44.262Z,1.00
2019-03-06T10:12:30.954Z,1.00
2019-03-06T10:15:12.283Z,1.00
2019-03-06T10:17:59.961Z,1.00
2019-03-06T10:20:28.507Z,1.00
2019-03-06T10:22:59.594Z,1.00
2019-03-06T10:25:30.534Z,1.00
2019-03-06T10:28:06.187Z,1.00
2019-03-06T10:30:32.942Z,1.00
2019-03-06T10:33:01.876Z,1.00
2019-03-06T10:35:30.417Z,1.00
2019-03-06T10:38:03.338Z,1.00
2019-03-06T10:40:31.647Z,1.00
2019-03-06T10:43:00.085Z,1.00
2019-03-06T10:45:28.482Z,1.00
2019-03-06T10:47:57.426Z,1.00
2019-03-06T10:50:30.341Z,1.00
2019-03-06T10:52:59.529Z,1.00
2019-03-06T10:55:28.074Z,1.00
2019-03-06T10:57:56.817Z,1.00
2019-03-06T11:00:29.806Z,1.00
2019-03-06T11:02:58.505Z,1.00
2019-03-06T11:05:31.319Z,1.00
2019-03-06T11:08:00.036Z,1.00
2019-03-06T11:10:35.132Z,1.00
2019-03-06T11:13:08.632Z,1.00
2019-03-06T11:15:37.793Z,1.00
2019-03-06T11:18:06.352Z,1.00
2019-03-06T11:20:37.723Z,1.00
2019-03-06T11:23:06.724Z,1.00
2019-03-06T11:25:36.578Z,1.00
2019-03-06T11:28:07.722Z,1.00
2019-03-06T11:30:44.406Z,1.00
2019-03-06T11:33:13.173Z,1.00
2019-03-06T11:35:41.734Z,1.00
2019-03-06T11:38:10.785Z,1.00
2019-03-06T11:40:44.596Z,1.00
2019-03-06T11:43:13.201Z,1.00
2019-03-06T11:45:42.458Z,1.00
2019-03-06T11:48:11.642Z,1.00
2019-03-06T11:50:41.119Z,1.00
2019-03-06T11:53:12.686Z,1.00
2019-03-06T11:55:41.543Z,1.00
2019-03-06T11:58:12.867Z,1.00
2019-03-06T12:00:43.654Z,1.00
2019-03-06T12:03:19.200Z,1.00
2019-03-06T12:05:48.195Z,1.00
2019-03-06T12:08:16.599Z,1.00
2019-03-06T12:10:52.605Z,1.00
2019-03-06T12:13:23.938Z,1.00
2019-03-06T12:15:52.378Z,1.00
2019-03-06T12:18:21.594Z,1.00
2019-03-06T12:20:50.224Z,1.00
2019-03-06T12:23:19.299Z,1.00
2019-03-06T12:25:52.937Z,1.00
2019-03-06T12:28:21.486Z,1.00
2019-03-06T12:30:50.220Z,1.00
2019-03-06T12:33:21.287Z,1.00
2019-03-06T12:35:49.663Z,1.00
2019-03-06T12:38:19.423Z,1.00
2019-03-06T12:40:48.069Z,1.00
2019-03-06T12:43:16.718Z,1.00
2019-03-06T12:46:22.316Z,1.00
2019-03-06T12:48:46.247Z,1.00
2019-03-06T12:51:14.796Z,1.00
2019-03-06T12:53:43.887Z,1.00
2019-03-06T12:56:12.726Z,1.00
2019-03-06T12:58:40.014Z,1.00
2019-03-06T13:01:08.419Z,1.00
2019-03-06T13:03:37.110Z,1.00
2019-03-06T13:06:10.365Z,1.00
2019-03-06T13:08:49.845Z,1.00
2019-03-06T13:11:11.047Z,1.00
2019-03-06T13:13:39.869Z,1.00
2019-03-06T13:16:08.155Z,1.00
2019-03-06T13:18:40.054Z,1.00
2019-03-06T13:21:08.214Z,1.00
2019-03-06T13:23:37.234Z,1.00
2019-03-06T13:26:10.459Z,1.00
2019-03-06T13:28:38.929Z,1.00
2019-03-06T13:31:07.839Z,1.00
2019-03-06T13:33:52.726Z,1.00
2019-03-06T13:36:21.674Z,1.00
2019-03-06T13:38:54.939Z,1.00
2019-03-06T13:41:22.120Z,1.00
2019-03-06T13:43:50.515Z,1.00
2019-03-06T13:46:22.799Z,1.00
2019-03-06T13:48:51.427Z,1.00
2019-03-06T13:51:19.734Z,1.00
2019-03-06T13:53:48.518Z,1.00
2019-03-06T13:56:17.265Z,1.00
2019-03-06T13:58:50.257Z,1.00
2019-03-06T14:01:17.745Z,1.00
2019-03-06T14:03:45.398Z,1.00
2019-03-06T14:06:14.241Z,1.00
2019-03-06T14:08:43.299Z,1.00
2019-03-06T14:11:14.479Z,1.00
2019-03-06T14:13:43.257Z,1.00
2019-03-06T14:16:11.981Z,1.00
2019-03-06T14:18:40.814Z,1.00
2019-03-06T14:21:08.614Z,1.00
2019-03-06T14:23:40.142Z,1.00
2019-03-06T14:26:07.796Z,1.00
2019-03-06T14:28:36.261Z,1.00
2019-03-06T14:31:05.080Z,1.00
2019-03-06T14:33:35.069Z,1.00
2019-03-06T14:36:03.371Z,1.00
2019-03-06T14:38:32.129Z,1.00
2019-03-06T14:40:59.612Z,1.00
2019-03-06T14:43:29.170Z,1.00
2019-03-06T14:45:56.686Z,1.00
2019-03-06T14:48:29.239Z,1.00
2019-03-06T14:50:58.925Z,1.00
2019-03-06T14:53:26.575Z,1.00
2019-03-06T14:55:55.110Z,1.00
2019-03-06T14:58:28.083Z,1.00
2019-03-06T15:00:56.584Z,1.00
2019-03-06T15:03:24.967Z,1.00
2019-03-06T15:05:53.927Z,1.00
2019-03-06T15:08:21.454Z,1.00
2019-03-06T15:10:54.793Z,1.00
2019-03-06T15:13:22.324Z,1.00
2019-03-06T15:15:49.763Z,1.00
2019-03-06T15:18:18.957Z,1.00
2019-03-06T15:20:46.468Z,1.00
2019-03-06T15:23:15.702Z,1.00
2019-03-06T15:25:46.455Z,1.00
2019-03-06T15:28:15.538Z,1.00
2019-03-06T15:30:43.177Z,1.00
2019-03-06T15:33:13.500Z,1.00
2019-03-06T15:35:50.907Z,1.00
2019-03-06T15:38:19.471Z,1.00
2019-03-06T15:40:47.227Z,1.00
2019-03-06T15:43:16.462Z,1.00
2019-03-06T15:45:44.473Z,1.00
2019-03-06T15:48:17.046Z,1.00
2019-03-06T15:50:45.810Z,1.00
2019-03-06T15:53:23.858Z,1.00
2019-03-06T15:55:44.091Z,1.00
2019-03-06T15:58:11.940Z,1.00
2019-03-06T16:00:46.799Z,1.00
2019-03-06T16:03:15.581Z,1.00
2019-03-06T16:05:43.165Z,1.00
2019-03-06T16:08:12.362Z,1.00
2019-03-06T16:10:40.939Z,1.00
2019-03-06T16:13:14.831Z,1.00
2019-03-06T16:15:43.123Z,1.00
2019-03-06T16:18:11.578Z,1.00
2019-03-06T16:20:40.905Z,1.00
2019-03-06T16:23:09.393Z,1.00
2019-03-06T16:25:40.284Z,1.00
2019-03-06T16:28:09.351Z,1.00
2019-03-06T16:30:38.702Z,1.00
2019-03-06T16:33:06.285Z,1.00
2019-03-06T16:35:35.130Z,1.00
2019-03-06T16:38:02.654Z,1.00
2019-03-06T16:40:32.695Z,1.00
2019-03-06T16:43:00.534Z,1.00
2019-03-06T16:45:28.775Z,1.00
2019-03-06T16:47:57.719Z,1.00
2019-03-06T16:50:26.330Z,1.00
2019-03-06T16:52:55.183Z,1.00
2019-03-06T16:55:24.925Z,1.00
2019-03-06T16:57:52.879Z,1.00
2019-03-06T17:00:26.949Z,1.00
2019-03-06T17:02:55.585Z,1.00
2019-03-06T17:05:23.527Z,1.00
2019-03-06T17:07:51.347Z,1.00
2019-03-06T17:10:19.729Z,1.00
2019-03-06T17:12:47.514Z,1.00
2019-03-06T17:15:17.026Z,1.00
2019-03-06T17:17:45.905Z,1.00
2019-03-06T17:20:16.109Z,1.00
2019-03-06T17:22:44.833Z,1.00
2019-03-06T17:25:14.065Z,1.00
2019-03-06T17:27:42.033Z,1.00
2019-03-06T17:30:12.907Z,1.00
2019-03-06T17:33:04.796Z,1.00
2019-03-06T17:35:33.154Z,1.00
2019-03-06T17:38:02.586Z,1.00
2019-03-06T17:40:31.769Z,1.00
2019-03-06T17:43:00.531Z,1.00
2019-03-06T17:45:29.017Z,1.00
2019-03-06T17:47:58.022Z,1.00
2019-03-06T17:50:26.514Z,1.00
2019-03-06T17:52:55.108Z,1.00
2019-03-06T17:55:23.385Z,1.00
2019-03-06T17:57:53.300Z,1.00
2019-03-06T18:04:14.248Z,1.00
2019-03-06T18:06:42.428Z,1.00
2019-03-06T18:09:11.195Z,1.00
2019-03-06T18:11:39.225Z,1.00
2019-03-06T18:14:07.348Z,1.00
2019-03-06T18:16:37.207Z,1.00
2019-03-06T18:19:05.453Z,1.00
2019-03-06T18:21:34.121Z,1.00
2019-03-06T18:24:02.416Z,1.00
2019-03-06T18:26:31.111Z,1.00
2019-03-06T18:28:59.138Z,1.00
2019-03-06T18:31:27.444Z,1.40
2019-03-06T18:33:55.540Z,1.90
2019-03-06T18:36:27.502Z,2.20
2019-03-06T18:38:55.707Z,2.30
2019-03-06T18:41:23.751Z,2.90
2019-03-06T18:43:51.668Z,4.20
2019-03-06T18:46:19.659Z,6.60
2019-03-06T18:48:48.458Z,8.70
2019-03-06T18:51:16.819Z,10.40
2019-03-06T18:53:45.071Z,11.30
2019-03-06T18:56:13.228Z,12.40
2019-03-06T18:58:41.184Z,12.40
2019-03-06T19:01:09.697Z,12.50
2019-03-06T19:03:36.783Z,13.70
2019-03-06T19:06:04.933Z,13.90
2019-03-06T19:08:32.952Z,16.90
2019-03-06T19:11:01.083Z,18.30
2019-03-06T19:13:29.487Z,19.50
2019-03-06T19:15:57.536Z,21.20
2019-03-06T19:18:25.541Z,22.40
2019-03-06T19:20:53.923Z,20.60
2019-03-06T19:23:22.033Z,21.10
2019-03-06T19:25:50.189Z,21.10
2019-03-06T19:28:18.420Z,22.50
2019-03-06T19:30:45.395Z,22.50
2019-03-06T19:33:13.380Z,22.60
2019-03-06T19:35:45.139Z,22.50
2019-03-06T19:38:12.402Z,24.40
2019-03-06T19:40:48.878Z,25.50
2019-03-06T19:43:16.277Z,24.50
2019-03-06T19:45:45.130Z,26.20
2019-03-06T19:48:12.469Z,28.40
2019-03-06T19:50:42.073Z,29.90
2019-03-06T19:53:10.497Z,29.00
2019-03-06T19:55:39.206Z,28.90
2019-03-06T19:58:07.618Z,27.90
2019-03-06T20:00:35.758Z,28.70
2019-03-06T20:03:07.107Z,29.40
2019-03-06T20:05:35.893Z,30.60
2019-03-06T20:08:07.282Z,32.50
2019-03-06T20:10:36.250Z,37.10
2019-03-06T20:13:05.575Z,38.70
2019-03-06T20:15:36.185Z,41.40
2019-03-06T20:18:04.941Z,42.20
2019-03-06T20:20:35.728Z,42.70
2019-03-06T20:23:03.336Z,44.50
2019-03-06T20:25:30.841Z,44.40
2019-03-06T20:27:59.561Z,47.90
2019-03-06T20:30:28.182Z,50.70
2019-03-06T20:32:57.127Z,51.40
2019-03-06T20:35:25.746Z,52.00
2019-03-06T20:37:54.656Z,50.40
2019-03-06T20:40:23.593Z,54.60
2019-03-06T20:42:52.317Z,56.10
2019-03-06T20:45:20.569Z,59.20
2019-03-06T20:47:48.824Z,59.30
2019-03-06T20:50:17.379Z,60.20
2019-03-06T20:52:46.219Z,64.90
2019-03-06T20:55:15.400Z,68.00
2019-03-06T20:57:44.481Z,75.70
2019-03-06T21:00:15.077Z,71.60
2019-03-06T21:02:43.577Z,75.30
2019-03-06T21:05:15.301Z,76.10
2019-03-06T21:07:45.210Z,76.70
2019-03-06T21:10:14.697Z,78.20
2019-03-06T21:12:43.956Z,76.80
2019-03-06T21:15:13.657Z,76.10
2019-03-06T21:17:42.597Z,74.40
2019-03-06T21:20:15.761Z,71.00
2019-03-06T21:22:43.919Z,71.70
2019-03-06T21:25:13.601Z,73.20
2019-03-06T21:27:41.997Z,73.50
2019-03-06T21:30:37.330Z,71.30
2019-03-06T21:33:04.910Z,71.40
2019-03-06T21:35:32.238Z,70.00
2019-03-06T21:37:59.813Z,71.90
2019-03-06T21:40:27.585Z,69.40
2019-03-06T21:42:54.985Z,68.20
2019-03-06T21:45:22.745Z,68.20
2019-03-06T21:47:50.517Z,69.10
2019-03-06T21:50:17.667Z,68.10
2019-03-06T21:52:45.344Z,69.00
2019-03-06T21:55:12.727Z,67.40
2019-03-06T21:57:40.213Z,66.20
2019-03-06T22:00:11.097Z,66.00
2019-03-06T22:02:38.533Z,66.30
2019-03-06T22:05:06.127Z,65.30
2019-03-06T22:07:33.704Z,63.20
2019-03-06T22:10:01.277Z,63.00
2019-03-06T22:12:28.884Z,63.20
2019-03-06T22:14:56.289Z,63.50
2019-03-06T22:17:23.577Z,63.10
2019-03-06T22:19:51.241Z,63.20
2019-03-06T22:22:19.236Z,62.60
2019-03-06T22:24:47.103Z,61.30
2019-03-06T22:27:14.653Z,61.40
2019-03-06T22:29:45.884Z,60.90
2019-03-06T22:32:13.851Z,59.70
2019-03-06T22:34:43.061Z,59.30
2019-03-06T22:37:10.110Z,59.50
2019-03-06T22:39:37.133Z,58.40
2019-03-06T22:42:04.526Z,59.40
2019-03-06T22:44:33.224Z,62.20
2019-03-06T22:47:01.956Z,62.30
2019-03-06T22:49:29.846Z,61.30
2019-03-06T22:51:58.257Z,61.30
2019-03-06T22:54:26.352Z,60.80
2019-03-06T22:56:54.890Z,60.90
2019-03-06T22:59:22.201Z,60.10
2019-03-06T23:01:50.577Z,59.80
2019-03-06T23:04:19.190Z,60.90
2019-03-06T23:06:48.029Z,59.90
2019-03-06T23:09:16.310Z,60.20
2019-03-06T23:11:45.057Z,61.20
2019-03-06T23:14:13.497Z,60.80
2019-03-06T23:16:42.224Z,60.60
2019-03-06T23:19:11.526Z,60.70
2019-03-06T23:21:40.028Z,61.80
2019-03-06T23:24:08.677Z,60.70
2019-03-06T23:26:42.730Z,61.20
2019-03-06T23:29:07.558Z,61.00
2019-03-06T23:31:35.729Z,60.60
2019-03-06T23:34:04.244Z,59.30
2019-03-06T23:36:32.807Z,58.60
2019-03-06T23:39:01.678Z,57.70
2019-03-06T23:41:31.113Z,57.40
2019-03-06T23:43:58.097Z,56.70
2019-03-06T23:46:26.713Z,55.90
2019-03-06T23:48:55.114Z,55.80
2019-03-06T23:51:28.597Z,53.70
2019-03-06T23:53:56.837Z,53.30
2019-03-06T23:56:25.553Z,52.60
2019-03-06T23:58:53.923Z,53.50
